Time;durP1;ratioP1;P1;durP2;ratioP2;P2;SDS_P1;SDS_P2;PMS_P1;PMS_P2;Temp;Humidity;BMP_temperature;BMP_pressure;BME280_temperature;BME280_humidity;BME280_pressure;Samples;Min_cycle;Max_cycle;Signal;HPM_P1;HPM_P2
2022/01/03 00:01:44;;;;;;;29.05;4.15;;;;;;;;;;4992606;28;20026;-70
2022/01/03 00:04:10;;;;;;;27.55;3.60;;;;;;;;;;4996681;28;20040;-71
2022/01/03 00:06:38;;;;;;;26.60;3.50;;;;;;;;;;4994357;28;20057;-71
2022/01/03 00:09:05;;;;;;;33.03;4.32;;;;;;;;;;4995490;28;20040;-72
2022/01/03 00:11:31;;;;;;;28.08;4.32;;;;;;;;;;4992996;28;20034;-70
2022/01/03 00:13:57;;;;;;;29.00;3.92;;;;;;;;;;4995606;28;20073;-72
2022/01/03 00:16:24;;;;;;;29.33;4.10;;;;;;;;;;4995771;28;20038;-71
2022/01/03 00:18:51;;;;;;;40.90;5.45;;;;;;;;;;4992255;28;20097;-71
2022/01/03 00:21:18;;;;;;;28.50;4.53;;;;;;;;;;4997744;28;20511;-72
2022/01/03 00:23:52;;;;;;;29.77;3.97;;;;;;;;;;4994075;28;20590;-72
2022/01/03 00:26:25;;;;;;;30.17;3.97;;;;;;;;;;4996028;28;20045;-71
2022/01/03 00:28:52;;;;;;;27.13;4.43;;;;;;;;;;4994304;28;20475;-71
2022/01/03 00:31:19;;;;;;;33.15;4.65;;;;;;;;;;4995074;28;20035;-71
2022/01/03 00:33:51;;;;;;;30.35;5.18;;;;;;;;;;4990726;28;20103;-70
2022/01/03 00:36:17;;;;;;;43.15;4.60;;;;;;;;;;4995734;28;20105;-73
2022/01/03 00:38:43;;;;;;;36.33;4.53;;;;;;;;;;4995316;28;20507;-71
2022/01/03 00:41:09;;;;;;;40.08;4.90;;;;;;;;;;4995237;28;20026;-73
2022/01/03 00:43:35;;;;;;;39.25;5.57;;;;;;;;;;4996036;28;20157;-71
2022/01/03 00:46:01;;;;;;;49.13;6.35;;;;;;;;;;4989942;28;20038;-72
2022/01/03 00:48:27;;;;;;;39.80;6.32;;;;;;;;;;4995735;28;20031;-72
2022/01/03 00:50:53;;;;;;;41.63;5.93;;;;;;;;;;4995368;28;20093;-70
2022/01/03 00:53:20;;;;;;;38.88;5.57;;;;;;;;;;4993376;28;20022;-72
2022/01/03 00:56:00;;;;;;;39.88;4.60;;;;;;;;;;4999442;28;20018;-70
2022/01/03 00:58:29;;;;;;;40.70;4.68;;;;;;;;;;4991626;28;20034;-71
2022/01/03 01:00:55;;;;;;;34.08;4.88;;;;;;;;;;4995082;28;20007;-71
2022/01/03 01:03:22;;;;;;;45.30;5.90;;;;;;;;;;4997297;28;20036;-72
2022/01/03 01:05:49;;;;;;;35.67;5.05;;;;;;;;;;4999751;28;20510;-72
2022/01/03 01:08:18;;;;;;;46.83;7.47;;;;;;;;;;4998771;28;20046;-71
2022/01/03 01:10:45;;;;;;;39.80;5.15;;;;;;;;;;4998849;28;20022;-71
2022/01/03 01:13:12;;;;;;;43.83;5.32;;;;;;;;;;4998737;28;20073;-72
2022/01/03 01:15:39;;;;;;;38.20;5.78;;;;;;;;;;5001827;28;20478;-72
2022/01/03 01:18:06;;;;;;;37.13;5.05;;;;;;;;;;4998913;28;20022;-72
2022/01/03 01:20:33;;;;;;;36.65;5.22;;;;;;;;;;4995614;28;20050;-72
2022/01/03 01:23:00;;;;;;;45.15;7.05;;;;;;;;;;4999547;28;20007;-72
2022/01/03 01:27:46;;;;;;;38.28;4.53;;;;;;;;;;4998823;28;20058;-69
2022/01/03 01:28:13;;;;;;;45.70;6.47;;;;;;;;;;4997233;28;20535;-72
2022/01/03 01:30:40;;;;;;;42.08;6.15;;;;;;;;;;4995030;28;20057;-72
2022/01/03 01:33:17;;;;;;;34.40;4.22;;;;;;;;;;4993951;28;20401;-70
2022/01/03 01:35:56;;;;;;;40.42;6.28;;;;;;;;;;4990254;28;20035;-72
2022/01/03 01:38:23;;;;;;;39.15;5.10;;;;;;;;;;4998861;28;20006;-73
2022/01/03 01:40:50;;;;;;;30.52;4.80;;;;;;;;;;4995441;28;20022;-73
2022/01/03 01:43:25;;;;;;;35.40;5.57;;;;;;;;;;4994003;28;20070;-72
2022/01/03 01:45:51;;;;;;;32.40;4.47;;;;;;;;;;4995561;28;20030;-72
2022/01/03 01:48:18;;;;;;;38.22;5.03;;;;;;;;;;4992362;28;20030;-71
2022/01/03 01:50:48;;;;;;;37.22;5.20;;;;;;;;;;4993722;28;20058;-70
2022/01/03 01:53:20;;;;;;;30.13;5.72;;;;;;;;;;4996083;28;20346;-70
2022/01/03 01:55:48;;;;;;;40.42;5.57;;;;;;;;;;4992020;28;20476;-70
2022/01/03 01:58:18;;;;;;;30.73;4.63;;;;;;;;;;4997664;28;20100;-71
2022/01/03 02:00:45;;;;;;;45.08;5.30;;;;;;;;;;4995782;28;20022;-70
2022/01/03 02:03:20;;;;;;;41.50;5.10;;;;;;;;;;4995951;28;20041;-71
2022/01/03 02:06:01;;;;;;;56.50;7.80;;;;;;;;;;4995920;28;20113;-72
2022/01/03 02:08:28;;;;;;;42.20;3.78;;;;;;;;;;4995696;28;20142;-72
2022/01/03 02:11:12;;;;;;;39.63;5.53;;;;;;;;;;4997187;28;20105;-71
2022/01/03 02:13:39;;;;;;;40.78;6.03;;;;;;;;;;4998925;28;20018;-72
2022/01/03 02:16:07;;;;;;;31.63;4.45;;;;;;;;;;4996509;28;20095;-70
2022/01/03 02:18:33;;;;;;;40.70;6.15;;;;;;;;;;4994118;28;20034;-72
2022/01/03 02:21:01;;;;;;;32.42;5.78;;;;;;;;;;4995209;28;20864;-71
2022/01/03 02:23:28;;;;;;;38.28;5.78;;;;;;;;;;4995981;28;20297;-72
2022/01/03 02:25:54;;;;;;;45.35;6.32;;;;;;;;;;4994982;28;20026;-72
2022/01/03 02:28:22;;;;;;;42.05;5.80;;;;;;;;;;4989440;28;20532;-71
2022/01/03 02:30:49;;;;;;;33.50;5.15;;;;;;;;;;4992468;28;20027;-71
2022/01/03 02:33:16;;;;;;;36.60;5.43;;;;;;;;;;4992100;28;20061;-72
2022/01/03 02:35:43;;;;;;;48.95;6.50;;;;;;;;;;4979485;28;20026;-76
2022/01/03 02:38:09;;;;;;;52.45;6.70;;;;;;;;;;4996175;28;20349;-70
2022/01/03 02:40:35;;;;;;;37.90;5.72;;;;;;;;;;4980256;28;20026;-72
2022/01/03 02:43:01;;;;;;;42.65;5.90;;;;;;;;;;4997478;28;20582;-77
2022/01/03 02:45:27;;;;;;;43.17;6.10;;;;;;;;;;4995062;28;20094;-72
2022/01/03 02:47:55;;;;;;;35.38;4.47;;;;;;;;;;4994373;28;20066;-72
2022/01/03 02:50:22;;;;;;;42.53;6.15;;;;;;;;;;4993289;28;20044;-70
2022/01/03 02:52:48;;;;;;;47.55;5.93;;;;;;;;;;4997467;28;20027;-71
2022/01/03 02:55:15;;;;;;;50.97;5.72;;;;;;;;;;4992784;28;20019;-71
2022/01/03 02:57:43;;;;;;;51.30;5.68;;;;;;;;;;4998134;28;20121;-71
2022/01/03 03:00:11;;;;;;;44.53;4.82;;;;;;;;;;4993863;28;20515;-71
2022/01/03 03:02:37;;;;;;;40.90;5.60;;;;;;;;;;4996723;28;20037;-71
2022/01/03 03:05:04;;;;;;;43.10;7.40;;;;;;;;;;4992147;28;20030;-73
2022/01/03 03:07:31;;;;;;;49.67;7.35;;;;;;;;;;4993920;28;20142;-72
2022/01/03 03:09:57;;;;;;;39.85;5.60;;;;;;;;;;4993061;28;20033;-70
2022/01/03 03:12:24;;;;;;;48.70;7.05;;;;;;;;;;4994659;28;20476;-72
2022/01/03 03:14:50;;;;;;;49.15;5.05;;;;;;;;;;4992833;28;20395;-72
2022/01/03 03:17:20;;;;;;;56.63;6.65;;;;;;;;;;4997410;28;20058;-72
2022/01/03 03:20:03;;;;;;;49.60;8.02;;;;;;;;;;4993362;28;20022;-71
2022/01/03 03:22:30;;;;;;;43.55;5.70;;;;;;;;;;4993766;28;20038;-71
2022/01/03 03:25:16;;;;;;;40.15;5.95;;;;;;;;;;4995721;28;20131;-71
2022/01/03 03:27:44;;;;;;;45.33;5.47;;;;;;;;;;4996467;28;20085;-71
2022/01/03 03:30:20;;;;;;;39.38;6.38;;;;;;;;;;4992177;28;20033;-70
2022/01/03 03:32:47;;;;;;;54.20;6.53;;;;;;;;;;4995521;28;20470;-72
2022/01/03 03:35:13;;;;;;;52.78;6.20;;;;;;;;;;4993838;28;20116;-71
2022/01/03 03:37:39;;;;;;;50.33;6.68;;;;;;;;;;4998840;28;20056;-70
2022/01/03 03:40:06;;;;;;;45.85;7.82;;;;;;;;;;4993037;28;20026;-71
2022/01/03 03:42:32;;;;;;;49.35;6.68;;;;;;;;;;4995168;28;20061;-71
2022/01/03 03:44:58;;;;;;;51.63;6.65;;;;;;;;;;4995376;28;20030;-72
2022/01/03 03:47:24;;;;;;;59.17;8.85;;;;;;;;;;4995341;28;20101;-72
2022/01/03 03:49:51;;;;;;;44.03;5.88;;;;;;;;;;4994589;28;20018;-71
2022/01/03 03:52:17;;;;;;;50.70;6.72;;;;;;;;;;4994142;28;20518;-70
2022/01/03 03:54:43;;;;;;;50.95;6.47;;;;;;;;;;4994344;28;20428;-72
2022/01/03 03:57:09;;;;;;;51.63;8.20;;;;;;;;;;4996661;28;20033;-73
2022/01/03 03:59:36;;;;;;;51.67;7.10;;;;;;;;;;4997594;28;20034;-72
2022/01/03 04:02:02;;;;;;;53.97;8.20;;;;;;;;;;4990751;28;20038;-72
2022/01/03 04:04:28;;;;;;;51.10;7.53;;;;;;;;;;4989966;28;20034;-71
2022/01/03 04:06:54;;;;;;;62.05;9.00;;;;;;;;;;4995034;28;20117;-71
2022/01/03 04:09:21;;;;;;;56.92;9.23;;;;;;;;;;4996564;28;20088;-72
2022/01/03 04:11:48;;;;;;;56.25;8.65;;;;;;;;;;4997927;28;20467;-71
2022/01/03 04:14:14;;;;;;;57.55;8.32;;;;;;;;;;4994332;28;20507;-72
2022/01/03 04:16:40;;;;;;;62.60;7.20;;;;;;;;;;4994304;28;20502;-71
2022/01/03 04:19:06;;;;;;;52.90;6.80;;;;;;;;;;4991862;28;20065;-71
2022/01/03 04:21:32;;;;;;;56.30;7.18;;;;;;;;;;4993044;28;20030;-71
2022/01/03 04:23:58;;;;;;;66.25;7.97;;;;;;;;;;4995759;28;20049;-69
2022/01/03 04:26:25;;;;;;;57.70;8.77;;;;;;;;;;4996732;28;20061;-72
2022/01/03 04:28:51;;;;;;;65.18;7.57;;;;;;;;;;4978011;28;20107;-72
2022/01/03 04:31:17;;;;;;;58.35;7.80;;;;;;;;;;4984146;28;20026;-72
2022/01/03 04:33:44;;;;;;;51.50;8.57;;;;;;;;;;4995947;28;20027;-76
2022/01/03 04:36:10;;;;;;;56.17;8.07;;;;;;;;;;4996578;28;20038;-73
2022/01/03 04:38:36;;;;;;;66.32;7.90;;;;;;;;;;4993498;28;20041;-72
2022/01/03 04:41:03;;;;;;;56.75;8.15;;;;;;;;;;4997111;28;20109;-72
2022/01/03 04:43:29;;;;;;;60.50;10.18;;;;;;;;;;4999998;28;20038;-71
2022/01/03 04:45:56;;;;;;;74.85;9.43;;;;;;;;;;4995998;28;20030;-72
2022/01/03 04:48:22;;;;;;;53.22;8.23;;;;;;;;;;4998562;28;20027;-72
2022/01/03 04:50:48;;;;;;;57.90;9.80;;;;;;;;;;4995108;28;20038;-72
2022/01/03 04:53:14;;;;;;;65.20;8.50;;;;;;;;;;4993636;28;20038;-72
2022/01/03 04:55:40;;;;;;;60.97;8.45;;;;;;;;;;4995342;28;20503;-72
2022/01/03 04:58:08;;;;;;;63.78;8.30;;;;;;;;;;4999462;28;20045;-72
2022/01/03 05:00:35;;;;;;;64.70;10.15;;;;;;;;;;4998513;28;20444;-71
2022/01/03 05:03:00;;;;;;;67.80;8.40;;;;;;;;;;4996529;28;20061;-71
2022/01/03 05:05:26;;;;;;;57.58;7.80;;;;;;;;;;4997220;28;20092;-72
2022/01/03 05:07:52;;;;;;;55.10;6.57;;;;;;;;;;4996082;28;20159;-72
2022/01/03 05:10:19;;;;;;;59.13;8.07;;;;;;;;;;4996108;28;20037;-72
2022/01/03 05:12:45;;;;;;;65.20;7.30;;;;;;;;;;4997528;28;20041;-73
2022/01/03 05:15:11;;;;;;;62.75;8.02;;;;;;;;;;4996357;28;20062;-72
2022/01/03 05:17:37;;;;;;;69.72;9.48;;;;;;;;;;4996697;28;20037;-72
2022/01/03 05:20:03;;;;;;;58.63;9.65;;;;;;;;;;4996539;28;20507;-72
2022/01/03 05:22:29;;;;;;;56.22;6.88;;;;;;;;;;4979875;28;20063;-72
2022/01/03 05:24:55;;;;;;;65.95;8.93;;;;;;;;;;4996110;28;20031;-72
2022/01/03 05:27:21;;;;;;;65.38;9.70;;;;;;;;;;4995487;28;20031;-72
2022/01/03 05:29:47;;;;;;;53.22;7.07;;;;;;;;;;4997452;28;20311;-70
2022/01/03 05:32:13;;;;;;;52.33;7.82;;;;;;;;;;5000550;28;20072;-72
2022/01/03 05:34:39;;;;;;;57.80;7.57;;;;;;;;;;4995714;28;20081;-71
2022/01/03 05:37:05;;;;;;;56.58;7.88;;;;;;;;;;4978885;28;20038;-72
2022/01/03 05:39:31;;;;;;;52.88;7.55;;;;;;;;;;4998967;28;20022;-72
2022/01/03 05:41:57;;;;;;;53.05;8.82;;;;;;;;;;4981165;28;20110;-72
2022/01/03 05:44:25;;;;;;;62.35;8.07;;;;;;;;;;4997556;28;20026;-70
2022/01/03 05:46:51;;;;;;;59.28;6.97;;;;;;;;;;4996603;28;20065;-72
2022/01/03 05:49:17;;;;;;;61.50;9.40;;;;;;;;;;4996768;28;20065;-70
2022/01/03 05:51:43;;;;;;;56.10;8.65;;;;;;;;;;4998627;28;20038;-72
2022/01/03 05:54:09;;;;;;;47.45;6.85;;;;;;;;;;4995974;28;20034;-71
2022/01/03 05:56:35;;;;;;;60.28;8.68;;;;;;;;;;4979210;28;20030;-72
2022/01/03 05:59:01;;;;;;;58.53;8.80;;;;;;;;;;4992953;28;20038;-71
2022/01/03 06:01:27;;;;;;;44.15;6.30;;;;;;;;;;4994468;28;20404;-71
2022/01/03 06:04:00;;;;;;;57.25;8.93;;;;;;;;;;4997645;28;20037;-71
2022/01/03 06:06:53;;;;;;;47.78;6.15;;;;;;;;;;4989006;28;20144;-72
2022/01/03 06:09:16;;;;;;;48.35;7.18;;;;;;;;;;4995346;28;20030;-72
2022/01/03 06:11:42;;;;;;;47.92;6.57;;;;;;;;;;5000183;28;20049;-71
2022/01/03 06:14:08;;;;;;;66.28;8.82;;;;;;;;;;4993153;28;20034;-73
2022/01/03 06:16:34;;;;;;;48.90;7.03;;;;;;;;;;4996986;28;20030;-71
2022/01/03 06:19:00;;;;;;;56.38;7.35;;;;;;;;;;4995163;28;20089;-72
2022/01/03 06:21:26;;;;;;;53.53;7.78;;;;;;;;;;4996528;28;20117;-72
2022/01/03 06:23:52;;;;;;;57.10;7.50;;;;;;;;;;4994008;28;20038;-72
2022/01/03 06:26:18;;;;;;;51.38;8.85;;;;;;;;;;4996611;28;20499;-72
2022/01/03 06:28:44;;;;;;;61.03;7.00;;;;;;;;;;4993976;28;20034;-73
2022/01/03 06:31:10;;;;;;;68.63;8.50;;;;;;;;;;4997020;28;20026;-71
2022/01/03 06:33:36;;;;;;;54.60;6.88;;;;;;;;;;4996606;28;20034;-72
2022/01/03 06:36:02;;;;;;;49.78;7.85;;;;;;;;;;4990991;28;20034;-73
2022/01/03 06:38:28;;;;;;;48.38;7.25;;;;;;;;;;4992510;28;20038;-73
2022/01/03 06:40:55;;;;;;;54.28;6.95;;;;;;;;;;4997677;28;20518;-72
2022/01/03 06:43:21;;;;;;;43.25;6.65;;;;;;;;;;4993511;28;20058;-72
2022/01/03 06:45:47;;;;;;;48.20;7.07;;;;;;;;;;4997956;28;20022;-73
2022/01/03 06:48:13;;;;;;;59.42;7.38;;;;;;;;;;4975383;28;20089;-73
2022/01/03 06:50:39;;;;;;;50.60;7.70;;;;;;;;;;4981134;28;20439;-72
2022/01/03 06:53:05;;;;;;;44.10;6.57;;;;;;;;;;4990327;28;20133;-73
2022/01/03 06:55:31;;;;;;;39.40;6.70;;;;;;;;;;4962375;28;20082;-73
2022/01/03 06:57:57;;;;;;;48.58;6.97;;;;;;;;;;4993701;28;20042;-73
2022/01/03 07:00:23;;;;;;;65.93;7.72;;;;;;;;;;4994056;28;20018;-73
2022/01/03 07:02:49;;;;;;;50.55;5.72;;;;;;;;;;4989257;28;20053;-73
2022/01/03 07:05:15;;;;;;;49.45;7.72;;;;;;;;;;4989452;28;20507;-72
2022/01/03 07:07:41;;;;;;;54.70;7.97;;;;;;;;;;4991396;28;20038;-73
2022/01/03 07:10:12;;;;;;;56.10;7.78;;;;;;;;;;4991580;28;20035;-72
2022/01/03 07:12:39;;;;;;;56.42;7.55;;;;;;;;;;4999446;28;20386;-73
2022/01/03 07:20:35;;;;;;;47.88;7.68;;;;;;;;;;4988478;28;20050;-73
2022/01/03 07:23:01;;;;;;;46.60;6.30;;;;;;;;;;4994797;28;20584;-71
2022/01/03 07:25:27;;;;;;;54.35;6.63;;;;;;;;;;4996899;28;20062;-72
2022/01/03 07:27:53;;;;;;;54.78;6.90;;;;;;;;;;5000881;28;20495;-71
2022/01/03 07:30:19;;;;;;;45.15;6.80;;;;;;;;;;4993877;28;20034;-72
2022/01/03 07:32:45;;;;;;;50.25;7.22;;;;;;;;;;4989614;28;20042;-72
2022/01/03 07:35:14;;;;;;;46.40;7.35;;;;;;;;;;4993288;28;20030;-71
2022/01/03 07:37:41;;;;;;;45.83;6.53;;;;;;;;;;4993216;28;20108;-72
2022/01/03 07:40:07;;;;;;;53.08;6.28;;;;;;;;;;4990773;28;20033;-73
2022/01/03 07:42:33;;;;;;;71.07;7.03;;;;;;;;;;4972231;28;20041;-73
2022/01/03 07:44:59;;;;;;;51.35;6.35;;;;;;;;;;4988882;28;20030;-72
2022/01/03 07:47:25;;;;;;;47.90;6.85;;;;;;;;;;4992000;28;20034;-72
2022/01/03 07:49:51;;;;;;;47.20;6.45;;;;;;;;;;4986832;28;20037;-74
2022/01/03 07:52:17;;;;;;;59.72;7.80;;;;;;;;;;4975351;28;20104;-72
2022/01/03 07:54:43;;;;;;;57.08;7.88;;;;;;;;;;4988757;28;20034;-72
2022/01/03 07:57:09;;;;;;;53.22;6.50;;;;;;;;;;4994204;28;20026;-72
2022/01/03 07:59:35;;;;;;;44.20;6.95;;;;;;;;;;4990690;28;20033;-73
2022/01/03 08:02:01;;;;;;;61.15;9.57;;;;;;;;;;4987250;28;20062;-73
2022/01/03 08:04:27;;;;;;;49.58;6.22;;;;;;;;;;4988143;28;20077;-72
2022/01/03 08:06:53;;;;;;;39.47;5.22;;;;;;;;;;4992051;28;20094;-72
2022/01/03 08:09:19;;;;;;;44.70;7.00;;;;;;;;;;4993457;28;20010;-73
2022/01/03 08:11:45;;;;;;;48.22;6.57;;;;;;;;;;4995750;28;20042;-73
2022/01/03 08:14:11;;;;;;;48.47;6.38;;;;;;;;;;4993543;28;20029;-72
2022/01/03 08:16:37;;;;;;;54.88;6.15;;;;;;;;;;4992949;28;20129;-72
2022/01/03 08:19:03;;;;;;;46.28;7.35;;;;;;;;;;4996121;28;20056;-72
2022/01/03 08:21:30;;;;;;;55.88;6.63;;;;;;;;;;4890913;28;20057;-71
2022/01/03 08:23:56;;;;;;;55.55;8.00;;;;;;;;;;4975193;28;20058;-73
2022/01/03 08:26:22;;;;;;;44.38;6.95;;;;;;;;;;4979581;28;20113;-74
2022/01/03 08:29:07;;;;;;;51.85;6.32;;;;;;;;;;4980858;28;20046;-74
2022/01/03 08:31:33;;;;;;;47.63;7.85;;;;;;;;;;4990781;28;21253;-74
2022/01/03 08:33:59;;;;;;;50.03;7.07;;;;;;;;;;4974546;28;20452;-74
2022/01/03 08:36:25;;;;;;;51.33;8.02;;;;;;;;;;4960153;28;20019;-73
2022/01/03 08:38:51;;;;;;;53.88;7.03;;;;;;;;;;4974328;28;20030;-73
2022/01/03 08:41:17;;;;;;;45.85;6.63;;;;;;;;;;4960300;28;20034;-74
2022/01/03 08:43:43;;;;;;;42.90;7.82;;;;;;;;;;4973985;28;20449;-72
2022/01/03 08:46:09;;;;;;;60.05;6.35;;;;;;;;;;4973082;28;20042;-73
2022/01/03 08:48:35;;;;;;;46.28;8.07;;;;;;;;;;4980844;28;20031;-73
2022/01/03 08:51:01;;;;;;;57.00;6.78;;;;;;;;;;4983786;28;20022;-73
2022/01/03 08:53:27;;;;;;;46.13;6.97;;;;;;;;;;4976256;28;20038;-73
2022/01/03 08:55:54;;;;;;;62.97;6.93;;;;;;;;;;4978709;28;20121;-73
2022/01/03 08:58:21;;;;;;;55.08;7.75;;;;;;;;;;4975614;28;20011;-73
2022/01/03 09:00:47;;;;;;;52.97;7.07;;;;;;;;;;4973938;28;20117;-73
2022/01/03 09:03:13;;;;;;;60.25;6.93;;;;;;;;;;4956249;28;20461;-74
2022/01/03 09:05:39;;;;;;;47.25;7.43;;;;;;;;;;4974314;28;20495;-71
2022/01/03 09:08:05;;;;;;;53.28;7.47;;;;;;;;;;4977025;28;20034;-73
2022/01/03 09:10:31;;;;;;;49.75;7.35;;;;;;;;;;4975893;28;20039;-71
2022/01/03 09:12:57;;;;;;;52.22;6.38;;;;;;;;;;4976657;28;20039;-73
2022/01/03 09:15:23;;;;;;;63.00;7.65;;;;;;;;;;4982109;28;20025;-73
2022/01/03 09:17:50;;;;;;;51.65;7.55;;;;;;;;;;4982153;28;20132;-73
2022/01/03 09:20:16;;;;;;;42.15;6.82;;;;;;;;;;4973426;28;20190;-73
2022/01/03 09:22:46;;;;;;;54.33;7.78;;;;;;;;;;4979498;28;20081;-74
2022/01/03 09:30:42;;;;;;;48.40;6.63;;;;;;;;;;4971898;28;20053;-72
2022/01/03 09:33:08;;;;;;;54.42;6.75;;;;;;;;;;4955062;28;20041;-73
2022/01/03 09:35:34;;;;;;;50.85;6.13;;;;;;;;;;4972540;28;20126;-73
2022/01/03 09:38:00;;;;;;;45.33;6.28;;;;;;;;;;4973469;28;20467;-73
2022/01/03 09:40:26;;;;;;;43.58;6.55;;;;;;;;;;4975154;28;20045;-73
2022/01/03 09:42:56;;;;;;;47.15;5.72;;;;;;;;;;4975135;28;20031;-73
2022/01/03 09:45:24;;;;;;;50.63;5.85;;;;;;;;;;4977561;28;20031;-73
2022/01/03 09:47:53;;;;;;;50.05;7.00;;;;;;;;;;4974452;28;20439;-73
2022/01/03 09:50:20;;;;;;;51.67;6.40;;;;;;;;;;4977693;28;20094;-74
2022/01/03 09:52:47;;;;;;;65.00;7.13;;;;;;;;;;4977229;28;20035;-73
2022/01/03 09:55:13;;;;;;;48.42;6.22;;;;;;;;;;4978864;28;20031;-74
2022/01/03 09:57:39;;;;;;;49.25;6.82;;;;;;;;;;4979702;28;20031;-74
2022/01/03 10:00:06;;;;;;;51.97;8.73;;;;;;;;;;4980475;28;20118;-74
2022/01/03 10:02:33;;;;;;;59.88;6.60;;;;;;;;;;4992114;28;20047;-74
2022/01/03 10:04:59;;;;;;;57.45;7.60;;;;;;;;;;4979146;28;20492;-74
2022/01/03 10:07:27;;;;;;;47.58;6.50;;;;;;;;;;4986656;28;20050;-74
2022/01/03 10:09:54;;;;;;;56.97;7.53;;;;;;;;;;4981119;28;20542;-72
2022/01/03 10:12:21;;;;;;;45.17;6.30;;;;;;;;;;4982945;28;20019;-72
2022/01/03 10:14:47;;;;;;;41.00;5.45;;;;;;;;;;4971224;28;20035;-72
2022/01/03 10:17:13;;;;;;;39.15;5.80;;;;;;;;;;4979665;28;20038;-73
2022/01/03 10:19:51;;;;;;;43.88;6.57;;;;;;;;;;4978788;28;20110;-73
2022/01/03 10:22:21;;;;;;;56.38;8.27;;;;;;;;;;4977200;28;20203;-73
2022/01/03 10:24:48;;;;;;;41.53;5.65;;;;;;;;;;4977958;28;20134;-74
2022/01/03 10:27:14;;;;;;;48.30;6.90;;;;;;;;;;4979120;28;20043;-72
2022/01/03 10:29:41;;;;;;;54.05;7.13;;;;;;;;;;4960308;28;20224;-72
2022/01/03 10:32:11;;;;;;;47.20;6.38;;;;;;;;;;4961375;28;20066;-72
2022/01/03 10:34:37;;;;;;;46.55;6.15;;;;;;;;;;4975877;28;20062;-72
2022/01/03 10:37:10;;;;;;;36.70;5.90;;;;;;;;;;4981193;28;20026;-72
2022/01/03 10:39:36;;;;;;;39.13;6.15;;;;;;;;;;4982469;28;20035;-71
2022/01/03 10:42:18;;;;;;;49.80;6.43;;;;;;;;;;4966568;28;20026;-73
2022/01/03 10:44:45;;;;;;;42.42;6.95;;;;;;;;;;4980293;28;20022;-73
2022/01/03 10:47:18;;;;;;;38.65;6.28;;;;;;;;;;4978851;28;20058;-72
2022/01/03 10:49:45;;;;;;;39.90;5.43;;;;;;;;;;4969080;28;20053;-72
2022/01/03 10:52:11;;;;;;;51.08;6.32;;;;;;;;;;4980994;28;20157;-72
2022/01/03 10:54:37;;;;;;;36.72;5.53;;;;;;;;;;4986989;28;20039;-72
2022/01/03 10:57:03;;;;;;;40.65;6.32;;;;;;;;;;4987896;28;20197;-72
2022/01/03 10:59:31;;;;;;;48.47;8.32;;;;;;;;;;4981460;28;20038;-72
2022/01/03 11:02:03;;;;;;;52.95;7.85;;;;;;;;;;4976655;28;20053;-72
2022/01/03 11:04:51;;;;;;;37.92;6.80;;;;;;;;;;4977079;28;20031;-73
2022/01/03 11:13:03;;;;;;;43.75;9.07;;;;;;;;;;4974139;28;20439;-74
2022/01/03 11:15:30;;;;;;;41.70;6.18;;;;;;;;;;4977997;28;20410;-72
2022/01/03 11:18:16;;;;;;;39.83;5.57;;;;;;;;;;4973933;28;20026;-72
2022/01/03 11:20:43;;;;;;;47.47;7.53;;;;;;;;;;4955985;28;20049;-72
2022/01/03 11:23:09;;;;;;;42.08;6.47;;;;;;;;;;4981239;28;20046;-73
2022/01/03 11:25:36;;;;;;;39.45;7.03;;;;;;;;;;4976248;28;20062;-70
2022/01/03 11:28:02;;;;;;;43.40;5.85;;;;;;;;;;4980731;28;20035;-73
2022/01/03 11:30:29;;;;;;;39.58;7.20;;;;;;;;;;4973193;28;20101;-73
2022/01/03 11:32:56;;;;;;;42.47;5.57;;;;;;;;;;4978419;28;20034;-73
2022/01/03 11:35:22;;;;;;;36.92;5.45;;;;;;;;;;4978268;28;20026;-72
2022/01/03 11:37:49;;;;;;;51.47;7.35;;;;;;;;;;4977359;28;20093;-76
2022/01/03 11:40:16;;;;;;;43.80;6.53;;;;;;;;;;4978648;28;20022;-74
2022/01/03 11:42:42;;;;;;;46.08;7.07;;;;;;;;;;4974746;28;20558;-73
2022/01/03 11:45:09;;;;;;;39.50;6.03;;;;;;;;;;4981120;28;20038;-74
2022/01/03 11:47:38;;;;;;;40.40;5.90;;;;;;;;;;4976816;28;20038;-74
2022/01/03 11:50:08;;;;;;;45.10;6.32;;;;;;;;;;4976222;28;20129;-74
2022/01/03 11:52:42;;;;;;;43.40;5.88;;;;;;;;;;4976055;28;20045;-75
2022/01/03 11:55:09;;;;;;;44.53;6.25;;;;;;;;;;4971517;28;20030;-74
2022/01/03 12:03:39;;;;;;;39.25;5.97;;;;;;;;;;4955333;28;20039;-74
2022/01/03 12:06:06;;;;;;;41.17;5.72;;;;;;;;;;4976685;28;20051;-73
2022/01/03 12:08:36;;;;;;;38.20;5.85;;;;;;;;;;4973691;28;20034;-73
2022/01/03 12:11:22;;;;;;;48.85;6.68;;;;;;;;;;4973922;28;20046;-73
2022/01/03 12:13:59;;;;;;;46.47;6.43;;;;;;;;;;4977692;28;20310;-73
2022/01/03 12:16:43;;;;;;;47.28;6.03;;;;;;;;;;4983488;28;20063;-73
2022/01/03 12:19:12;;;;;;;45.33;7.70;;;;;;;;;;4987172;28;20034;-71
2022/01/03 12:21:52;;;;;;;47.47;8.32;;;;;;;;;;4976835;28;20038;-73
2022/01/03 12:24:27;;;;;;;48.50;8.68;;;;;;;;;;4977723;28;20051;-72
2022/01/03 12:27:12;;;;;;;46.00;6.35;;;;;;;;;;4982561;28;20061;-72
2022/01/03 12:29:53;;;;;;;49.67;6.40;;;;;;;;;;4979678;28;20074;-72
2022/01/03 12:32:23;;;;;;;42.78;6.82;;;;;;;;;;4977286;28;20069;-73
2022/01/03 12:35:23;;;;;;;40.67;7.00;;;;;;;;;;4969899;28;20421;-73
2022/01/03 12:37:55;;;;;;;44.78;7.25;;;;;;;;;;4935786;28;20034;-73
2022/01/03 12:40:30;;;;;;;34.38;6.68;;;;;;;;;;4981502;28;20507;-72
2022/01/03 12:42:56;;;;;;;34.83;5.70;;;;;;;;;;4954382;28;20441;-72
2022/01/03 12:45:32;;;;;;;32.97;5.70;;;;;;;;;;4973944;28;20030;-71
2022/01/03 12:48:10;;;;;;;32.70;4.85;;;;;;;;;;4979602;28;20023;-72
2022/01/03 12:50:51;;;;;;;32.35;5.32;;;;;;;;;;4978019;28;20046;-72
2022/01/03 12:53:17;;;;;;;;;;;;;;;;;;4978160;28;20513;-72
2022/01/03 12:55:47;;;;;;;24.25;4.63;;;;;;;;;;4979162;28;19930;-73
2022/01/03 12:58:16;;;;;;;30.95;5.05;;;;;;;;;;4984604;28;20027;-74
2022/01/03 13:00:43;;;;;;;32.42;4.43;;;;;;;;;;4980255;28;20031;-73
2022/01/03 13:03:28;;;;;;;29.17;5.10;;;;;;;;;;4983065;28;20023;-73
2022/01/03 13:06:06;;;;;;;33.88;5.60;;;;;;;;;;4983483;28;20025;-73
2022/01/03 13:08:32;;;;;;;35.17;5.43;;;;;;;;;;4989384;28;20034;-73
2022/01/03 13:11:09;;;;;;;34.08;6.45;;;;;;;;;;4984654;28;20042;-74
2022/01/03 13:13:36;;;;;;;36.65;4.70;;;;;;;;;;4984779;28;20022;-72
2022/01/03 13:16:21;;;;;;;30.13;5.05;;;;;;;;;;4984096;28;20038;-73
2022/01/03 13:19:07;;;;;;;30.83;5.72;;;;;;;;;;4987299;28;20038;-72
2022/01/03 13:21:38;;;;;;;24.00;5.30;;;;;;;;;;4992451;28;20090;-70
2022/01/03 13:24:04;;;;;;;33.03;6.05;;;;;;;;;;4998485;28;20023;-72
2022/01/03 13:26:31;;;;;;;25.65;5.00;;;;;;;;;;4998712;28;20102;-72
2022/01/03 13:28:58;;;;;;;35.20;4.60;;;;;;;;;;5003909;28;20011;-72
2022/01/03 13:31:24;;;;;;;31.60;5.57;;;;;;;;;;5002292;28;20049;-73
2022/01/03 13:33:57;;;;;;;23.42;4.93;;;;;;;;;;4971523;28;20378;-72
2022/01/03 13:36:37;;;;;;;20.00;4.22;;;;;;;;;;4979932;28;20034;-73
2022/01/03 13:39:07;;;;;;;22.10;3.95;;;;;;;;;;4977467;28;20507;-72
2022/01/03 13:41:37;;;;;;;24.33;3.90;;;;;;;;;;4976270;28;20034;-72
2022/01/03 13:44:04;;;;;;;31.23;4.72;;;;;;;;;;4980921;28;20301;-72
2022/01/03 13:49:21;;;;;;;36.50;5.45;;;;;;;;;;4979461;28;20085;-73
2022/01/03 13:51:57;;;;;;;25.67;4.30;;;;;;;;;;4978881;28;20031;-73
2022/01/03 13:54:25;;;;;;;24.52;4.18;;;;;;;;;;4980706;28;20023;-73
2022/01/03 13:56:52;;;;;;;25.33;4.00;;;;;;;;;;4980628;28;20027;-73
2022/01/03 13:59:18;;;;;;;28.58;4.28;;;;;;;;;;4981001;28;20022;-73
2022/01/03 14:01:45;;;;;;;29.70;3.67;;;;;;;;;;4981999;28;20031;-73
2022/01/03 14:04:11;;;;;;;32.20;4.20;;;;;;;;;;4980502;28;20042;-72
2022/01/03 14:06:37;;;;;;;32.10;4.45;;;;;;;;;;4979847;28;20055;-72
2022/01/03 14:09:11;;;;;;;25.38;3.50;;;;;;;;;;4980794;28;20039;-73
2022/01/03 14:11:37;;;;;;;26.85;4.15;;;;;;;;;;4983983;28;20029;-73
2022/01/03 14:14:09;;;;;;;30.27;3.53;;;;;;;;;;4984664;28;20039;-72
2022/01/03 14:16:50;;;;;;;21.98;3.67;;;;;;;;;;4993113;28;20078;-72
2022/01/03 14:19:16;;;;;;;24.83;3.78;;;;;;;;;;4986725;28;20106;-73
2022/01/03 14:21:44;;;;;;;19.25;3.33;;;;;;;;;;4982691;28;20034;-73
2022/01/03 14:24:11;;;;;;;25.20;4.47;;;;;;;;;;4975732;28;20045;-73
2022/01/03 14:26:38;;;;;;;21.20;3.55;;;;;;;;;;4973753;28;20050;-72
2022/01/03 14:29:08;;;;;;;20.55;3.65;;;;;;;;;;4975664;28;20068;-73
2022/01/03 14:31:44;;;;;;;24.63;4.93;;;;;;;;;;4981405;28;20062;-72
2022/01/03 14:34:10;;;;;;;20.33;4.18;;;;;;;;;;4979335;28;20396;-72
2022/01/03 14:36:40;;;;;;;21.45;3.67;;;;;;;;;;4981056;28;20853;-72
2022/01/03 14:42:10;;;;;;;20.88;3.75;;;;;;;;;;4999532;23;20052;-67
2022/01/03 14:44:36;;;;;;;20.70;3.40;;;;;;;;;;5007835;28;20034;-67
2022/01/03 14:47:11;;;;;;;24.08;3.72;;;;;;;;;;5009054;28;20048;-67
2022/01/03 14:49:38;;;;;;;21.58;3.22;;;;;;;;;;5006087;28;20037;-66
2022/01/03 14:52:05;;;;;;;21.33;3.38;;;;;;;;;;5000920;28;20122;-67
2022/01/03 14:54:32;;;;;;;16.40;3.28;;;;;;;;;;4996405;28;20028;-67
2022/01/03 14:57:14;;;;;;;18.13;2.40;;;;;;;;;;4996252;28;20076;-67
2022/01/03 14:59:40;;;;;;;22.02;4.18;;;;;;;;;;4999566;28;20021;-66
2022/01/03 15:02:07;;;;;;;18.20;3.72;;;;;;;;;;4985765;28;20034;-67
2022/01/03 15:04:33;;;;;;;19.15;2.65;;;;;;;;;;5006606;28;20033;-68
2022/01/03 15:07:09;;;;;;;20.35;3.47;;;;;;;;;;4998470;28;20026;-67